sensor_id;sensor_type;location;lat;lon;timestamp;P1;durP1;ratioP1;P2;durP2;ratioP2
38783;SDS011;24531;45.502;12.238;2022-12-18T00:01:02;9.02;;;5.47;;
38783;SDS011;24531;45.502;12.238;2022-12-18T00:03:34;7.88;;;5.47;;
38783;SDS011;24531;45.502;12.238;2022-12-18T00:06:01;6.97;;;5.32;;
38783;SDS011;24531;45.502;12.238;2022-12-18T00:08:27;8.10;;;5.13;;
38783;SDS011;24531;45.502;12.238;2022-12-18T00:10:53;8.82;;;5.68;;
38783;SDS011;24531;45.502;12.238;2022-12-18T00:13:19;7.57;;;4.97;;
38783;SDS011;24531;45.502;12.238;2022-12-18T00:15:44;8.57;;;5.57;;
38783;SDS011;24531;45.502;12.238;2022-12-18T00:18:10;11.73;;;5.43;;
38783;SDS011;24531;45.502;12.238;2022-12-18T00:20:36;7.88;;;5.18;;
38783;SDS011;24531;45.502;12.238;2022-12-18T00:23:03;7.65;;;5.50;;
38783;SDS011;24531;45.502;12.238;2022-12-18T00:25:31;6.78;;;4.65;;
38783;SDS011;24531;45.502;12.238;2022-12-18T00:27:59;7.03;;;5.15;;
38783;SDS011;24531;45.502;12.238;2022-12-18T00:30:25;7.30;;;5.65;;
38783;SDS011;24531;45.502;12.238;2022-12-18T00:32:50;7.43;;;5.10;;
38783;SDS011;24531;45.502;12.238;2022-12-18T00:35:19;7.18;;;5.28;;
38783;SDS011;24531;45.502;12.238;2022-12-18T00:37:50;8.50;;;6.00;;
38783;SDS011;24531;45.502;12.238;2022-12-18T00:40:16;8.25;;;5.30;;
38783;SDS011;24531;45.502;12.238;2022-12-18T00:42:41;7.20;;;5.35;;
38783;SDS011;24531;45.502;12.238;2022-12-18T00:45:26;7.80;;;5.68;;
38783;SDS011;24531;45.502;12.238;2022-12-18T00:47:53;7.97;;;5.75;;
38783;SDS011;24531;45.502;12.238;2022-12-18T00:50:19;7.78;;;5.25;;
38783;SDS011;24531;45.502;12.238;2022-12-18T00:52:45;8.70;;;5.07;;
38783;SDS011;24531;45.502;12.238;2022-12-18T00:55:11;7.38;;;4.90;;
38783;SDS011;24531;45.502;12.238;2022-12-18T00:57:43;6.35;;;5.68;;
38783;SDS011;24531;45.502;12.238;2022-12-18T01:00:11;10.07;;;5.93;;
38783;SDS011;24531;45.502;12.238;2022-12-18T01:02:38;8.55;;;5.70;;
38783;SDS011;24531;45.502;12.238;2022-12-18T01:05:04;8.95;;;5.68;;
38783;SDS011;24531;45.502;12.238;2022-12-18T01:07:29;7.65;;;4.97;;
38783;SDS011;24531;45.502;12.238;2022-12-18T01:09:55;8.30;;;5.75;;
38783;SDS011;24531;45.502;12.238;2022-12-18T01:12:21;8.88;;;5.32;;
38783;SDS011;24531;45.502;12.238;2022-12-18T01:14:46;7.00;;;5.07;;
38783;SDS011;24531;45.502;12.238;2022-12-18T01:17:12;6.95;;;4.85;;
38783;SDS011;24531;45.502;12.238;2022-12-18T01:19:38;8.73;;;5.38;;
38783;SDS011;24531;45.502;12.238;2022-12-18T01:22:03;8.07;;;5.10;;
38783;SDS011;24531;45.502;12.238;2022-12-18T01:24:29;8.30;;;5.45;;
38783;SDS011;24531;45.502;12.238;2022-12-18T01:26:54;6.90;;;5.63;;
38783;SDS011;24531;45.502;12.238;2022-12-18T01:29:22;6.82;;;5.13;;
38783;SDS011;24531;45.502;12.238;2022-12-18T01:31:48;7.35;;;5.45;;
38783;SDS011;24531;45.502;12.238;2022-12-18T01:34:13;7.78;;;5.20;;
38783;SDS011;24531;45.502;12.238;2022-12-18T01:36:39;5.65;;;4.88;;
38783;SDS011;24531;45.502;12.238;2022-12-18T01:39:06;8.70;;;5.13;;
38783;SDS011;24531;45.502;12.238;2022-12-18T01:41:34;7.10;;;5.15;;
38783;SDS011;24531;45.502;12.238;2022-12-18T01:55:39;7.28;;;5.03;;
38783;SDS011;24531;45.502;12.238;2022-12-18T01:58:11;7.85;;;4.55;;
38783;SDS011;24531;45.502;12.238;2022-12-18T02:00:37;6.50;;;5.13;;
38783;SDS011;24531;45.502;12.238;2022-12-18T02:03:03;6.82;;;4.63;;
38783;SDS011;24531;45.502;12.238;2022-12-18T02:11:14;7.25;;;4.95;;
38783;SDS011;24531;45.502;12.238;2022-12-18T02:16:59;7.93;;;4.85;;
38783;SDS011;24531;45.502;12.238;2022-12-18T02:28:04;5.38;;;4.10;;
38783;SDS011;24531;45.502;12.238;2022-12-18T02:30:35;7.68;;;4.38;;
38783;SDS011;24531;45.502;12.238;2022-12-18T02:33:04;6.35;;;4.68;;
38783;SDS011;24531;45.502;12.238;2022-12-18T02:35:32;7.10;;;4.63;;
38783;SDS011;24531;45.502;12.238;2022-12-18T02:37:59;6.72;;;4.95;;
38783;SDS011;24531;45.502;12.238;2022-12-18T02:40:26;7.57;;;4.80;;
38783;SDS011;24531;45.502;12.238;2022-12-18T02:42:53;6.88;;;4.82;;
38783;SDS011;24531;45.502;12.238;2022-12-18T02:45:19;7.47;;;4.90;;
38783;SDS011;24531;45.502;12.238;2022-12-18T02:47:46;5.82;;;4.55;;
38783;SDS011;24531;45.502;12.238;2022-12-18T02:50:29;6.95;;;4.50;;
38783;SDS011;24531;45.502;12.238;2022-12-18T02:53:22;6.72;;;4.18;;
38783;SDS011;24531;45.502;12.238;2022-12-18T03:06:20;6.22;;;4.63;;
38783;SDS011;24531;45.502;12.238;2022-12-18T03:08:53;7.63;;;5.35;;
38783;SDS011;24531;45.502;12.238;2022-12-18T03:11:23;8.25;;;5.10;;
38783;SDS011;24531;45.502;12.238;2022-12-18T03:14:11;6.90;;;5.43;;
38783;SDS011;24531;45.502;12.238;2022-12-18T03:16:40;6.80;;;4.65;;
38783;SDS011;24531;45.502;12.238;2022-12-18T03:19:08;6.50;;;4.35;;
38783;SDS011;24531;45.502;12.238;2022-12-18T03:21:51;6.63;;;4.15;;
38783;SDS011;24531;45.502;12.238;2022-12-18T03:24:21;9.93;;;4.97;;
38783;SDS011;24531;45.502;12.238;2022-12-18T03:26:50;6.82;;;4.78;;
38783;SDS011;24531;45.502;12.238;2022-12-18T03:29:22;6.88;;;4.70;;
38783;SDS011;24531;45.502;12.238;2022-12-18T03:31:56;10.13;;;5.15;;
38783;SDS011;24531;45.502;12.238;2022-12-18T03:34:37;6.65;;;4.05;;
38783;SDS011;24531;45.502;12.238;2022-12-18T03:37:05;9.05;;;5.28;;
38783;SDS011;24531;45.502;12.238;2022-12-18T03:39:31;8.52;;;5.18;;
38783;SDS011;24531;45.502;12.238;2022-12-18T03:44:35;8.80;;;5.55;;
38783;SDS011;24531;45.502;12.238;2022-12-18T03:47:25;6.90;;;5.13;;
38783;SDS011;24531;45.502;12.238;2022-12-18T03:49:57;8.55;;;4.90;;
38783;SDS011;24531;45.502;12.238;2022-12-18T03:52:38;7.97;;;5.07;;
38783;SDS011;24531;45.502;12.238;2022-12-18T03:55:09;7.05;;;3.50;;
38783;SDS011;24531;45.502;12.238;2022-12-18T03:57:36;8.15;;;5.22;;
38783;SDS011;24531;45.502;12.238;2022-12-18T04:03:25;8.15;;;5.22;;
38783;SDS011;24531;45.502;12.238;2022-12-18T04:06:11;6.70;;;4.97;;
38783;SDS011;24531;45.502;12.238;2022-12-18T04:08:38;8.88;;;5.40;;
38783;SDS011;24531;45.502;12.238;2022-12-18T04:11:05;7.57;;;4.80;;
38783;SDS011;24531;45.502;12.238;2022-12-18T04:14:00;7.75;;;5.47;;
38783;SDS011;24531;45.502;12.238;2022-12-18T04:16:26;7.00;;;4.75;;
38783;SDS011;24531;45.502;12.238;2022-12-18T04:18:52;9.32;;;5.30;;
38783;SDS011;24531;45.502;12.238;2022-12-18T04:21:18;6.82;;;4.63;;
38783;SDS011;24531;45.502;12.238;2022-12-18T04:23:44;9.82;;;5.63;;
38783;SDS011;24531;45.502;12.238;2022-12-18T04:26:10;9.07;;;5.72;;
38783;SDS011;24531;45.502;12.238;2022-12-18T04:28:36;7.75;;;4.75;;
38783;SDS011;24531;45.502;12.238;2022-12-18T04:31:01;8.85;;;6.13;;
38783;SDS011;24531;45.502;12.238;2022-12-18T04:33:27;9.85;;;5.70;;
38783;SDS011;24531;45.502;12.238;2022-12-18T04:35:53;8.70;;;5.65;;
38783;SDS011;24531;45.502;12.238;2022-12-18T04:38:18;8.98;;;5.30;;
38783;SDS011;24531;45.502;12.238;2022-12-18T04:40:44;8.60;;;5.75;;
38783;SDS011;24531;45.502;12.238;2022-12-18T04:43:10;8.75;;;6.03;;
38783;SDS011;24531;45.502;12.238;2022-12-18T04:45:36;9.55;;;5.25;;
38783;SDS011;24531;45.502;12.238;2022-12-18T04:48:02;9.73;;;5.82;;
38783;SDS011;24531;45.502;12.238;2022-12-18T04:50:29;9.95;;;6.18;;
38783;SDS011;24531;45.502;12.238;2022-12-18T04:52:55;7.82;;;5.28;;
38783;SDS011;24531;45.502;12.238;2022-12-18T04:55:21;9.95;;;6.63;;
38783;SDS011;24531;45.502;12.238;2022-12-18T04:57:46;8.25;;;5.78;;
38783;SDS011;24531;45.502;12.238;2022-12-18T05:00:12;8.20;;;5.82;;
38783;SDS011;24531;45.502;12.238;2022-12-18T05:02:38;9.27;;;5.70;;
38783;SDS011;24531;45.502;12.238;2022-12-18T05:05:04;10.50;;;6.38;;
38783;SDS011;24531;45.502;12.238;2022-12-18T05:07:30;8.10;;;5.55;;
38783;SDS011;24531;45.502;12.238;2022-12-18T05:09:55;8.55;;;6.15;;
38783;SDS011;24531;45.502;12.238;2022-12-18T05:12:24;8.95;;;6.15;;
38783;SDS011;24531;45.502;12.238;2022-12-18T05:14:50;10.25;;;6.68;;
38783;SDS011;24531;45.502;12.238;2022-12-18T05:17:15;7.43;;;5.38;;
38783;SDS011;24531;45.502;12.238;2022-12-18T05:19:41;9.63;;;6.15;;
38783;SDS011;24531;45.502;12.238;2022-12-18T05:22:07;9.40;;;6.18;;
38783;SDS011;24531;45.502;12.238;2022-12-18T05:24:33;9.05;;;5.90;;
38783;SDS011;24531;45.502;12.238;2022-12-18T05:26:59;8.57;;;5.90;;
38783;SDS011;24531;45.502;12.238;2022-12-18T05:29:24;10.65;;;6.63;;
38783;SDS011;24531;45.502;12.238;2022-12-18T05:31:50;9.75;;;5.80;;
38783;SDS011;24531;45.502;12.238;2022-12-18T05:34:16;11.25;;;6.18;;
38783;SDS011;24531;45.502;12.238;2022-12-18T05:36:41;9.25;;;5.88;;
38783;SDS011;24531;45.502;12.238;2022-12-18T05:39:07;8.65;;;5.70;;
38783;SDS011;24531;45.502;12.238;2022-12-18T05:41:33;10.88;;;6.45;;
38783;SDS011;24531;45.502;12.238;2022-12-18T05:43:59;10.60;;;6.55;;
38783;SDS011;24531;45.502;12.238;2022-12-18T05:46:25;8.98;;;5.78;;
38783;SDS011;24531;45.502;12.238;2022-12-18T05:48:51;9.80;;;6.22;;
38783;SDS011;24531;45.502;12.238;2022-12-18T05:51:18;9.85;;;6.13;;
38783;SDS011;24531;45.502;12.238;2022-12-18T05:53:45;14.27;;;6.35;;
38783;SDS011;24531;45.502;12.238;2022-12-18T05:56:12;10.98;;;6.90;;
38783;SDS011;24531;45.502;12.238;2022-12-18T05:58:40;10.38;;;5.97;;
38783;SDS011;24531;45.502;12.238;2022-12-18T06:01:13;8.35;;;5.57;;
38783;SDS011;24531;45.502;12.238;2022-12-18T06:03:44;10.40;;;5.93;;
38783;SDS011;24531;45.502;12.238;2022-12-18T06:06:17;9.52;;;5.97;;
38783;SDS011;24531;45.502;12.238;2022-12-18T06:08:45;10.90;;;6.47;;
38783;SDS011;24531;45.502;12.238;2022-12-18T06:11:11;11.93;;;6.15;;
38783;SDS011;24531;45.502;12.238;2022-12-18T06:13:37;10.25;;;6.18;;
38783;SDS011;24531;45.502;12.238;2022-12-18T06:16:04;10.93;;;6.68;;
38783;SDS011;24531;45.502;12.238;2022-12-18T06:18:30;9.65;;;6.00;;
38783;SDS011;24531;45.502;12.238;2022-12-18T06:20:56;10.40;;;6.53;;
38783;SDS011;24531;45.502;12.238;2022-12-18T06:23:23;12.52;;;6.90;;
38783;SDS011;24531;45.502;12.238;2022-12-18T06:25:49;10.60;;;6.90;;
38783;SDS011;24531;45.502;12.238;2022-12-18T06:28:15;10.05;;;6.18;;
38783;SDS011;24531;45.502;12.238;2022-12-18T06:30:44;9.23;;;6.25;;
38783;SDS011;24531;45.502;12.238;2022-12-18T06:33:12;14.77;;;7.43;;
38783;SDS011;24531;45.502;12.238;2022-12-18T06:35:38;12.35;;;7.13;;
38783;SDS011;24531;45.502;12.238;2022-12-18T06:38:04;9.93;;;6.18;;
38783;SDS011;24531;45.502;12.238;2022-12-18T06:40:29;9.90;;;6.40;;
38783;SDS011;24531;45.502;12.238;2022-12-18T06:42:55;11.68;;;7.18;;
38783;SDS011;24531;45.502;12.238;2022-12-18T06:45:21;11.55;;;7.28;;
38783;SDS011;24531;45.502;12.238;2022-12-18T06:47:46;10.45;;;6.82;;
38783;SDS011;24531;45.502;12.238;2022-12-18T06:50:12;10.02;;;6.78;;
38783;SDS011;24531;45.502;12.238;2022-12-18T06:52:38;14.00;;;8.90;;
38783;SDS011;24531;45.502;12.238;2022-12-18T06:55:05;14.38;;;8.20;;
38783;SDS011;24531;45.502;12.238;2022-12-18T06:57:35;9.98;;;7.03;;
38783;SDS011;24531;45.502;12.238;2022-12-18T07:00:01;10.48;;;7.05;;
38783;SDS011;24531;45.502;12.238;2022-12-18T07:02:27;14.40;;;6.85;;
38783;SDS011;24531;45.502;12.238;2022-12-18T07:04:53;10.07;;;7.10;;
38783;SDS011;24531;45.502;12.238;2022-12-18T07:07:19;9.98;;;7.00;;
38783;SDS011;24531;45.502;12.238;2022-12-18T07:09:44;10.50;;;6.57;;
38783;SDS011;24531;45.502;12.238;2022-12-18T07:12:10;10.55;;;7.03;;
38783;SDS011;24531;45.502;12.238;2022-12-18T07:14:36;11.23;;;6.88;;
38783;SDS011;24531;45.502;12.238;2022-12-18T07:17:01;10.07;;;6.38;;
38783;SDS011;24531;45.502;12.238;2022-12-18T07:19:27;11.25;;;6.30;;
38783;SDS011;24531;45.502;12.238;2022-12-18T07:21:52;9.85;;;6.55;;
38783;SDS011;24531;45.502;12.238;2022-12-18T07:24:18;11.02;;;6.65;;
38783;SDS011;24531;45.502;12.238;2022-12-18T07:26:47;10.15;;;6.28;;
38783;SDS011;24531;45.502;12.238;2022-12-18T07:29:13;11.23;;;6.53;;
38783;SDS011;24531;45.502;12.238;2022-12-18T07:31:38;14.35;;;7.53;;
38783;SDS011;24531;45.502;12.238;2022-12-18T07:34:04;10.50;;;7.13;;
38783;SDS011;24531;45.502;12.238;2022-12-18T07:36:30;13.05;;;6.70;;
38783;SDS011;24531;45.502;12.238;2022-12-18T07:38:55;10.88;;;7.30;;
38783;SDS011;24531;45.502;12.238;2022-12-18T07:41:21;12.10;;;7.43;;
38783;SDS011;24531;45.502;12.238;2022-12-18T07:43:47;11.13;;;6.70;;
38783;SDS011;24531;45.502;12.238;2022-12-18T07:46:13;11.45;;;7.18;;
38783;SDS011;24531;45.502;12.238;2022-12-18T07:48:40;10.93;;;7.20;;
38783;SDS011;24531;45.502;12.238;2022-12-18T07:51:09;11.23;;;6.95;;
38783;SDS011;24531;45.502;12.238;2022-12-18T07:53:35;11.15;;;6.85;;
38783;SDS011;24531;45.502;12.238;2022-12-18T07:56:02;12.70;;;8.32;;
38783;SDS011;24531;45.502;12.238;2022-12-18T07:58:30;13.88;;;7.90;;
38783;SDS011;24531;45.502;12.238;2022-12-18T08:01:09;14.60;;;8.65;;
38783;SDS011;24531;45.502;12.238;2022-12-18T08:03:35;14.63;;;9.13;;
38783;SDS011;24531;45.502;12.238;2022-12-18T08:06:03;12.35;;;8.73;;
38783;SDS011;24531;45.502;12.238;2022-12-18T08:08:30;13.07;;;7.75;;
38783;SDS011;24531;45.502;12.238;2022-12-18T08:10:56;15.65;;;8.90;;
38783;SDS011;24531;45.502;12.238;2022-12-18T08:13:22;12.55;;;8.05;;
38783;SDS011;24531;45.502;12.238;2022-12-18T08:15:55;11.88;;;7.75;;
38783;SDS011;24531;45.502;12.238;2022-12-18T08:18:25;14.93;;;8.95;;
38783;SDS011;24531;45.502;12.238;2022-12-18T08:20:50;12.68;;;8.60;;
38783;SDS011;24531;45.502;12.238;2022-12-18T08:23:16;14.18;;;9.30;;
38783;SDS011;24531;45.502;12.238;2022-12-18T08:25:42;12.85;;;7.90;;
38783;SDS011;24531;45.502;12.238;2022-12-18T08:28:07;16.42;;;8.57;;
38783;SDS011;24531;45.502;12.238;2022-12-18T08:30:33;12.57;;;8.02;;
38783;SDS011;24531;45.502;12.238;2022-12-18T08:32:59;14.20;;;8.75;;
38783;SDS011;24531;45.502;12.238;2022-12-18T08:35:24;13.30;;;8.15;;
38783;SDS011;24531;45.502;12.238;2022-12-18T08:37:50;11.73;;;7.72;;
38783;SDS011;24531;45.502;12.238;2022-12-18T08:40:16;13.70;;;8.07;;
38783;SDS011;24531;45.502;12.238;2022-12-18T08:42:41;12.80;;;8.00;;
38783;SDS011;24531;45.502;12.238;2022-12-18T08:45:25;11.43;;;7.50;;
38783;SDS011;24531;45.502;12.238;2022-12-18T08:47:51;13.38;;;8.43;;
38783;SDS011;24531;45.502;12.238;2022-12-18T08:50:17;13.90;;;9.02;;
38783;SDS011;24531;45.502;12.238;2022-12-18T08:52:42;11.32;;;7.88;;
38783;SDS011;24531;45.502;12.238;2022-12-18T08:55:08;14.00;;;9.02;;
38783;SDS011;24531;45.502;12.238;2022-12-18T08:57:34;14.77;;;10.13;;
38783;SDS011;24531;45.502;12.238;2022-12-18T09:00:00;15.45;;;9.10;;
38783;SDS011;24531;45.502;12.238;2022-12-18T09:02:26;14.95;;;8.48;;
38783;SDS011;24531;45.502;12.238;2022-12-18T09:04:51;13.73;;;8.48;;
38783;SDS011;24531;45.502;12.238;2022-12-18T09:07:17;13.63;;;9.00;;
38783;SDS011;24531;45.502;12.238;2022-12-18T09:09:42;14.13;;;8.88;;
38783;SDS011;24531;45.502;12.238;2022-12-18T09:12:08;16.55;;;8.90;;
38783;SDS011;24531;45.502;12.238;2022-12-18T09:31:38;12.38;;;7.70;;
38783;SDS011;24531;45.502;12.238;2022-12-18T09:34:04;14.40;;;9.05;;
38783;SDS011;24531;45.502;12.238;2022-12-18T09:36:30;14.15;;;9.10;;
38783;SDS011;24531;45.502;12.238;2022-12-18T09:38:55;15.98;;;8.57;;
38783;SDS011;24531;45.502;12.238;2022-12-18T09:46:38;12.05;;;7.57;;
38783;SDS011;24531;45.502;12.238;2022-12-18T09:49:11;13.43;;;9.27;;
38783;SDS011;24531;45.502;12.238;2022-12-18T09:54:38;11.60;;;7.35;;
38783;SDS011;24531;45.502;12.238;2022-12-18T09:57:04;10.95;;;7.45;;
38783;SDS011;24531;45.502;12.238;2022-12-18T09:59:32;12.45;;;7.43;;
38783;SDS011;24531;45.502;12.238;2022-12-18T10:02:10;11.80;;;8.07;;
38783;SDS011;24531;45.502;12.238;2022-12-18T10:04:43;12.27;;;7.78;;
38783;SDS011;24531;45.502;12.238;2022-12-18T10:07:21;11.80;;;7.88;;
38783;SDS011;24531;45.502;12.238;2022-12-18T10:20:46;11.38;;;8.10;;
38783;SDS011;24531;45.502;12.238;2022-12-18T10:25:53;10.90;;;7.32;;
38783;SDS011;24531;45.502;12.238;2022-12-18T10:28:30;12.13;;;8.05;;
38783;SDS011;24531;45.502;12.238;2022-12-18T10:30:56;11.48;;;8.07;;
38783;SDS011;24531;45.502;12.238;2022-12-18T10:33:23;12.55;;;8.48;;
38783;SDS011;24531;45.502;12.238;2022-12-18T10:35:53;12.38;;;8.18;;
38783;SDS011;24531;45.502;12.238;2022-12-18T10:38:21;14.18;;;8.02;;
38783;SDS011;24531;45.502;12.238;2022-12-18T10:40:56;13.52;;;8.00;;
38783;SDS011;24531;45.502;12.238;2022-12-18T10:43:26;13.30;;;7.47;;
38783;SDS011;24531;45.502;12.238;2022-12-18T10:45:58;13.45;;;8.57;;
38783;SDS011;24531;45.502;12.238;2022-12-18T10:48:34;13.55;;;8.02;;
38783;SDS011;24531;45.502;12.238;2022-12-18T10:51:23;9.88;;;6.43;;
38783;SDS011;24531;45.502;12.238;2022-12-18T10:54:05;11.63;;;8.02;;
38783;SDS011;24531;45.502;12.238;2022-12-18T10:56:38;13.35;;;8.45;;
38783;SDS011;24531;45.502;12.238;2022-12-18T10:59:04;9.82;;;7.28;;
38783;SDS011;24531;45.502;12.238;2022-12-18T11:01:54;13.43;;;7.82;;
38783;SDS011;24531;45.502;12.238;2022-12-18T11:04:23;11.63;;;8.02;;
38783;SDS011;24531;45.502;12.238;2022-12-18T11:07:12;14.77;;;8.90;;
38783;SDS011;24531;45.502;12.238;2022-12-18T11:09:37;14.18;;;8.30;;
38783;SDS011;24531;45.502;12.238;2022-12-18T11:17:28;12.95;;;8.27;;
38783;SDS011;24531;45.502;12.238;2022-12-18T11:20:00;12.45;;;7.63;;
38783;SDS011;24531;45.502;12.238;2022-12-18T11:22:32;15.23;;;8.40;;
38783;SDS011;24531;45.502;12.238;2022-12-18T11:25:00;12.93;;;8.05;;
38783;SDS011;24531;45.502;12.238;2022-12-18T11:27:36;12.15;;;8.02;;
38783;SDS011;24531;45.502;12.238;2022-12-18T11:30:13;12.27;;;8.32;;
38783;SDS011;24531;45.502;12.238;2022-12-18T11:33:08;13.52;;;8.20;;
38783;SDS011;24531;45.502;12.238;2022-12-18T11:35:48;13.30;;;9.50;;
38783;SDS011;24531;45.502;12.238;2022-12-18T11:38:33;14.88;;;9.57;;
38783;SDS011;24531;45.502;12.238;2022-12-18T11:41:04;13.45;;;8.65;;
38783;SDS011;24531;45.502;12.238;2022-12-18T11:43:31;14.82;;;9.15;;
38783;SDS011;24531;45.502;12.238;2022-12-18T11:46:15;11.90;;;8.30;;
38783;SDS011;24531;45.502;12.238;2022-12-18T11:48:56;15.30;;;8.63;;
38783;SDS011;24531;45.502;12.238;2022-12-18T11:51:38;13.35;;;8.10;;
38783;SDS011;24531;45.502;12.238;2022-12-18T11:54:13;14.00;;;8.85;;
38783;SDS011;24531;45.502;12.238;2022-12-18T11:56:48;13.07;;;8.50;;
38783;SDS011;24531;45.502;12.238;2022-12-18T12:16:18;14.85;;;9.40;;
38783;SDS011;24531;45.502;12.238;2022-12-18T12:18:58;14.73;;;9.13;;
38783;SDS011;24531;45.502;12.238;2022-12-18T12:24:47;14.57;;;8.80;;
38783;SDS011;24531;45.502;12.238;2022-12-18T12:36:22;11.75;;;8.07;;
38783;SDS011;24531;45.502;12.238;2022-12-18T12:39:06;11.73;;;8.02;;
38783;SDS011;24531;45.502;12.238;2022-12-18T12:41:35;13.20;;;8.20;;
38783;SDS011;24531;45.502;12.238;2022-12-18T12:44:29;14.77;;;8.15;;
38783;SDS011;24531;45.502;12.238;2022-12-18T12:47:01;12.80;;;8.40;;
38783;SDS011;24531;45.502;12.238;2022-12-18T12:49:36;12.80;;;7.82;;
38783;SDS011;24531;45.502;12.238;2022-12-18T12:52:11;14.13;;;9.15;;
38783;SDS011;24531;45.502;12.238;2022-12-18T12:54:45;12.80;;;7.20;;
38783;SDS011;24531;45.502;12.238;2022-12-18T12:57:18;11.45;;;7.88;;
38783;SDS011;24531;45.502;12.238;2022-12-18T13:02:30;12.50;;;8.73;;
38783;SDS011;24531;45.502;12.238;2022-12-18T13:08:00;11.30;;;7.53;;
38783;SDS011;24531;45.502;12.238;2022-12-18T13:10:32;10.60;;;6.65;;
38783;SDS011;24531;45.502;12.238;2022-12-18T13:15:44;10.90;;;6.70;;
38783;SDS011;24531;45.502;12.238;2022-12-18T13:18:27;10.38;;;6.82;;
38783;SDS011;24531;45.502;12.238;2022-12-18T13:25:48;10.60;;;7.15;;
38783;SDS011;24531;45.502;12.238;2022-12-18T13:28:16;10.05;;;6.40;;
38783;SDS011;24531;45.502;12.238;2022-12-18T13:38:24;12.25;;;6.80;;
38783;SDS011;24531;45.502;12.238;2022-12-18T13:43:43;10.45;;;6.72;;
38783;SDS011;24531;45.502;12.238;2022-12-18T13:48:49;9.30;;;7.20;;
38783;SDS011;24531;45.502;12.238;2022-12-18T13:51:21;10.80;;;6.70;;
38783;SDS011;24531;45.502;12.238;2022-12-18T13:53:51;11.18;;;6.45;;
38783;SDS011;24531;45.502;12.238;2022-12-18T13:56:24;9.73;;;6.70;;
38783;SDS011;24531;45.502;12.238;2022-12-18T14:01:41;9.15;;;6.90;;
38783;SDS011;24531;45.502;12.238;2022-12-18T14:04:18;11.25;;;7.25;;
38783;SDS011;24531;45.502;12.238;2022-12-18T14:06:50;9.90;;;7.20;;
38783;SDS011;24531;45.502;12.238;2022-12-18T14:09:21;10.60;;;7.00;;
38783;SDS011;24531;45.502;12.238;2022-12-18T14:11:53;11.40;;;7.55;;
38783;SDS011;24531;45.502;12.238;2022-12-18T14:14:56;11.53;;;7.37;;
38783;SDS011;24531;45.502;12.238;2022-12-18T14:17:22;10.77;;;7.72;;
38783;SDS011;24531;45.502;12.238;2022-12-18T14:19:49;14.18;;;7.82;;
38783;SDS011;24531;45.502;12.238;2022-12-18T14:22:25;15.07;;;7.88;;
38783;SDS011;24531;45.502;12.238;2022-12-18T14:27:38;12.35;;;7.95;;
38783;SDS011;24531;45.502;12.238;2022-12-18T14:32:59;11.32;;;7.45;;
38783;SDS011;24531;45.502;12.238;2022-12-18T14:35:32;12.07;;;7.78;;
38783;SDS011;24531;45.502;12.238;2022-12-18T14:43:23;13.15;;;8.25;;
38783;SDS011;24531;45.502;12.238;2022-12-18T14:45:49;12.70;;;8.52;;
38783;SDS011;24531;45.502;12.238;2022-12-18T14:48:19;11.15;;;7.47;;
38783;SDS011;24531;45.502;12.238;2022-12-18T14:50:54;13.00;;;7.20;;
38783;SDS011;24531;45.502;12.238;2022-12-18T14:53:44;12.32;;;6.90;;
38783;SDS011;24531;45.502;12.238;2022-12-18T14:56:16;11.05;;;7.72;;
38783;SDS011;24531;45.502;12.238;2022-12-18T15:04:02;12.05;;;7.32;;
38783;SDS011;24531;45.502;12.238;2022-12-18T15:09:00;11.35;;;6.75;;
38783;SDS011;24531;45.502;12.238;2022-12-18T15:16:55;14.50;;;8.20;;
38783;SDS011;24531;45.502;12.238;2022-12-18T15:19:22;11.07;;;7.07;;
38783;SDS011;24531;45.502;12.238;2022-12-18T15:21:51;14.43;;;7.93;;
38783;SDS011;24531;45.502;12.238;2022-12-18T15:24:22;15.05;;;7.82;;
38783;SDS011;24531;45.502;12.238;2022-12-18T15:26:52;12.88;;;7.20;;
38783;SDS011;24531;45.502;12.238;2022-12-18T15:29:21;11.88;;;7.22;;
38783;SDS011;24531;45.502;12.238;2022-12-18T15:32:01;13.60;;;7.22;;
38783;SDS011;24531;45.502;12.238;2022-12-18T15:34:29;12.50;;;7.80;;
38783;SDS011;24531;45.502;12.238;2022-12-18T15:36:54;12.98;;;7.60;;
38783;SDS011;24531;45.502;12.238;2022-12-18T15:39:20;12.00;;;7.95;;
38783;SDS011;24531;45.502;12.238;2022-12-18T15:41:46;10.60;;;6.93;;
38783;SDS011;24531;45.502;12.238;2022-12-18T15:44:30;12.15;;;7.47;;
38783;SDS011;24531;45.502;12.238;2022-12-18T15:46:56;15.27;;;8.00;;
38783;SDS011;24531;45.502;12.238;2022-12-18T15:49:22;13.80;;;7.93;;
38783;SDS011;24531;45.502;12.238;2022-12-18T15:51:49;11.57;;;7.78;;
38783;SDS011;24531;45.502;12.238;2022-12-18T15:54:18;12.35;;;7.22;;
38783;SDS011;24531;45.502;12.238;2022-12-18T15:57:04;12.35;;;7.93;;
38783;SDS011;24531;45.502;12.238;2022-12-18T15:59:47;13.40;;;8.45;;
38783;SDS011;24531;45.502;12.238;2022-12-18T16:02:14;16.58;;;8.85;;
38783;SDS011;24531;45.502;12.238;2022-12-18T16:04:42;14.68;;;8.73;;
38783;SDS011;24531;45.502;12.238;2022-12-18T16:07:08;11.82;;;8.52;;
38783;SDS011;24531;45.502;12.238;2022-12-18T16:09:34;19.25;;;11.15;;
38783;SDS011;24531;45.502;12.238;2022-12-18T16:12:01;18.17;;;11.23;;
38783;SDS011;24531;45.502;12.238;2022-12-18T16:14:30;25.77;;;12.00;;
38783;SDS011;24531;45.502;12.238;2022-12-18T16:17:00;23.55;;;13.18;;
38783;SDS011;24531;45.502;12.238;2022-12-18T16:19:28;20.88;;;11.32;;
38783;SDS011;24531;45.502;12.238;2022-12-18T16:21:54;24.80;;;11.48;;
38783;SDS011;24531;45.502;12.238;2022-12-18T16:24:22;24.85;;;13.15;;
38783;SDS011;24531;45.502;12.238;2022-12-18T16:26:50;30.83;;;15.55;;
38783;SDS011;24531;45.502;12.238;2022-12-18T16:29:16;29.52;;;15.90;;
38783;SDS011;24531;45.502;12.238;2022-12-18T16:31:43;33.08;;;16.10;;
38783;SDS011;24531;45.502;12.238;2022-12-18T16:34:21;25.60;;;15.68;;
38783;SDS011;24531;45.502;12.238;2022-12-18T16:36:50;26.10;;;14.75;;
38783;SDS011;24531;45.502;12.238;2022-12-18T16:39:16;27.90;;;15.70;;
38783;SDS011;24531;45.502;12.238;2022-12-18T16:41:42;25.75;;;14.80;;
38783;SDS011;24531;45.502;12.238;2022-12-18T16:44:08;28.65;;;14.32;;
38783;SDS011;24531;45.502;12.238;2022-12-18T16:46:35;25.85;;;13.35;;
38783;SDS011;24531;45.502;12.238;2022-12-18T16:49:01;27.73;;;15.23;;
38783;SDS011;24531;45.502;12.238;2022-12-18T16:51:27;25.63;;;13.63;;
38783;SDS011;24531;45.502;12.238;2022-12-18T16:53:53;23.58;;;14.68;;
38783;SDS011;24531;45.502;12.238;2022-12-18T16:56:20;27.60;;;15.00;;
38783;SDS011;24531;45.502;12.238;2022-12-18T16:58:52;23.58;;;13.07;;
38783;SDS011;24531;45.502;12.238;2022-12-18T17:01:20;24.20;;;13.68;;
38783;SDS011;24531;45.502;12.238;2022-12-18T17:03:53;25.85;;;13.93;;
38783;SDS011;24531;45.502;12.238;2022-12-18T17:06:22;33.33;;;16.10;;
38783;SDS011;24531;45.502;12.238;2022-12-18T17:08:58;37.90;;;15.80;;
38783;SDS011;24531;45.502;12.238;2022-12-18T17:11:25;29.10;;;14.85;;
38783;SDS011;24531;45.502;12.238;2022-12-18T17:13:52;29.15;;;14.25;;
38783;SDS011;24531;45.502;12.238;2022-12-18T17:16:18;38.90;;;15.35;;
38783;SDS011;24531;45.502;12.238;2022-12-18T17:18:44;33.58;;;15.70;;
38783;SDS011;24531;45.502;12.238;2022-12-18T17:21:10;31.17;;;14.80;;
38783;SDS011;24531;45.502;12.238;2022-12-18T17:23:38;26.77;;;13.82;;
38783;SDS011;24531;45.502;12.238;2022-12-18T17:26:05;34.58;;;15.25;;
38783;SDS011;24531;45.502;12.238;2022-12-18T17:28:32;28.67;;;14.02;;
38783;SDS011;24531;45.502;12.238;2022-12-18T17:30:59;24.95;;;14.00;;